Cala Pula — IBID — position and weather

sailwx.info

Track history (hours):
 
Tides and Currents Weather Stations Pressure Air Temp Water Temp Dewpoint Dewpoint Depression Visibility Wind Speed Wind Dir Waves Ship Positions

Cala Pula

Last reported at 2015-Jul-11 17:05 UTC. Time now 2015-Jul-31 09:27 UTC.
Position N 36°00' W 005°24'.
Warning: this ship's position is 19 days out of date.

Length 189 m; draft 7.1 m.

Type: Cargo ship. MMSI: 247585000.

Date/timePositionNaut miles runAvg speedWind from/ knotsBaromVisibWave heightAir tempDewpointWater temp
2015-Jul-11 17:05N 36°00' W 005°24'28820.6
2015-Jul-11 03:08N 36°60' E 000°26'1221.0
2015-Jul-11 02:33N 37°03' E 000°41'54711.6
2015-Jul-09 03:18N 43°13' E 009°27'1921.5
2015-Jul-09 02:26N 43°29' E 009°12'2020.8
2015-Jul-09 01:27N 43°44' E 008°54'56 2.2
2015-Jul-08 00:04N 43°25' E 007°41'918.3
2015-Jul-07 23:33N 43°21' E 007°30'1818.3
2015-Jul-07 22:33N 43°12' E 007°08'1918.1
2015-Jul-07 21:30N 43°01' E 006°46'5417.9
2015-Jul-07 18:29N 42°34' E 005°43'1718.1
2015-Jul-07 17:33N 42°26' E 005°23'2718.3
2015-Jul-07 16:03N 42°15' E 004°50'5816.4
2015-Jul-07 12:31N 41°52' E 003°38'7318.1
2015-Jul-07 08:28N 41°03' E 002°25'1718.2
2015-Jul-07 07:33N 41°03' E 002°03'1818.3
2015-Jul-07 06:33N 41°02' E 001°39'48 2.1
2015-Jul-06 07:32N 40°22' E 001°04'12920.0
2015-Jul-06 01:06N 38°20' E 000°08'1419.8
2015-Jul-06 00:22N 38°08' W 000°02'3619.9
2015-Jul-05 22:33N 37°38' W 000°27'2019.6
2015-Jul-05 21:31N 37°24' W 000°45'2319.6
2015-Jul-05 20:22N 37°08' W 001°06'3620.1
2015-Jul-05 18:33N 36°45' W 001°40'18120.0
2015-Jul-05 09:31N 35°58' W 005°18'  
Track history (hours):
 
Tides and Currents Weather Stations Pressure Air Temp Water Temp Dewpoint Dewpoint Depression Visibility Wind Speed Wind Dir Waves Ship Positions

Cala Pula

Last reported at 2015-Jul-11 17:05 UTC. Time now 2015-Jul-31 09:27 UTC.
Position N 36°00' W 005°24'.
Warning: this ship's position is 19 days out of date.

Length 189 m; draft 7.1 m.

Type: Cargo ship. MMSI: 247585000.

Date/timePositionNaut miles runAvg speedWind from/ knotsBaromVisibWave heightAir tempDewpointWater temp
2015-Jul-11 17:05N 36°00' W 005°24'28820.6
2015-Jul-11 03:08N 36°60' E 000°26'1221.0
2015-Jul-11 02:33N 37°03' E 000°41'54711.6
2015-Jul-09 03:18N 43°13' E 009°27'1921.5
2015-Jul-09 02:26N 43°29' E 009°12'2020.8
2015-Jul-09 01:27N 43°44' E 008°54'56 2.2
2015-Jul-08 00:04N 43°25' E 007°41'918.3
2015-Jul-07 23:33N 43°21' E 007°30'1818.3
2015-Jul-07 22:33N 43°12' E 007°08'1918.1
2015-Jul-07 21:30N 43°01' E 006°46'5417.9
2015-Jul-07 18:29N 42°34' E 005°43'1718.1
2015-Jul-07 17:33N 42°26' E 005°23'2718.3
2015-Jul-07 16:03N 42°15' E 004°50'5816.4
2015-Jul-07 12:31N 41°52' E 003°38'7318.1
2015-Jul-07 08:28N 41°03' E 002°25'1718.2
2015-Jul-07 07:33N 41°03' E 002°03'1818.3
2015-Jul-07 06:33N 41°02' E 001°39'48 2.1
2015-Jul-06 07:32N 40°22' E 001°04'12920.0
2015-Jul-06 01:06N 38°20' E 000°08'1419.8
2015-Jul-06 00:22N 38°08' W 000°02'3619.9
2015-Jul-05 22:33N 37°38' W 000°27'2019.6
2015-Jul-05 21:31N 37°24' W 000°45'2319.6
2015-Jul-05 20:22N 37°08' W 001°06'3620.1
2015-Jul-05 18:33N 36°45' W 001°40'18120.0
2015-Jul-05 09:31N 35°58' W 005°18'  

Dump ship's entire track history